createdAt,value
2023-04-03T07:54:22.839Z,99.90
2023-04-03T07:56:51.085Z,99.90
2023-04-03T07:59:18.939Z,99.90
2023-04-03T08:01:46.706Z,99.90
2023-04-03T08:04:14.643Z,99.90
2023-04-03T08:06:47.030Z,99.90
2023-04-03T08:09:16.430Z,99.90
2023-04-03T08:11:46.213Z,99.90
2023-04-03T08:14:17.657Z,99.90
2023-04-03T08:16:46.478Z,99.90
2023-04-03T08:19:25.605Z,99.90
2023-04-03T08:21:54.810Z,99.90
2023-04-03T08:24:22.768Z,99.90
2023-04-03T08:26:51.960Z,99.90
2023-04-03T08:29:19.790Z,99.90
2023-04-03T08:31:47.545Z,99.90
2023-04-03T08:34:15.623Z,99.90
2023-04-03T08:36:43.567Z,99.90
2023-04-03T08:39:11.612Z,99.90
2023-04-03T08:41:42.360Z,99.90
2023-04-03T08:44:19.138Z,99.90
2023-04-03T08:46:58.495Z,99.90
2023-04-03T08:49:30.028Z,99.90
2023-04-03T08:51:59.809Z,99.90
2023-04-03T08:54:33.945Z,99.90
2023-04-03T08:57:06.828Z,99.90
2023-04-03T08:59:38.754Z,99.90
2023-04-03T09:02:25.382Z,99.90
2023-04-03T09:04:53.156Z,99.90
2023-04-03T09:07:25.982Z,99.90
2023-04-03T09:09:54.927Z,99.90
2023-04-03T09:12:27.590Z,99.90
2023-04-03T09:15:05.039Z,99.90
2023-04-03T09:17:43.112Z,99.90
2023-04-03T09:20:21.322Z,99.90
2023-04-03T09:22:52.805Z,99.90
2023-04-03T09:25:23.878Z,99.90
2023-04-03T09:27:52.327Z,99.90
2023-04-03T09:30:24.478Z,99.90
2023-04-03T09:32:53.983Z,99.90
2023-04-03T09:35:32.845Z,99.90
2023-04-03T09:38:19.644Z,99.90
2023-04-03T09:40:50.130Z,99.90
2023-04-03T09:43:30.656Z,99.90
2023-04-03T09:46:21.028Z,99.90
2023-04-03T09:49:05.086Z,99.90
2023-04-03T09:51:36.693Z,99.90
2023-04-03T09:54:40.931Z,99.90
2023-04-03T09:57:12.718Z,99.90
2023-04-03T09:59:47.894Z,99.90
2023-04-03T10:02:32.813Z,99.90
2023-04-03T10:05:09.634Z,99.90
2023-04-03T10:07:41.305Z,99.90
2023-04-03T10:10:24.774Z,99.90
2023-04-03T10:13:06.582Z,99.90
2023-04-03T10:15:40.791Z,99.90
2023-04-03T10:18:24.573Z,99.90
2023-04-03T10:20:54.097Z,99.90
2023-04-03T10:23:27.824Z,99.90
2023-04-03T10:26:09.398Z,99.90
2023-04-03T10:28:46.148Z,99.90
2023-04-03T10:31:19.095Z,99.90
2023-04-03T10:33:55.504Z,99.90
2023-04-03T10:36:35.472Z,99.90
2023-04-03T10:39:14.765Z,99.90
2023-04-03T10:42:05.485Z,99.90
2023-04-03T10:44:53.613Z,99.90
2023-04-03T10:47:24.381Z,99.90
2023-04-03T10:50:00.152Z,99.90
2023-04-03T10:52:41.174Z,99.90
2023-04-03T10:55:25.366Z,99.90
2023-04-03T10:57:56.268Z,99.90
2023-04-03T11:00:32.653Z,99.90
2023-04-03T12:23:28.428Z,93.40
2023-04-03T12:26:03.999Z,93.40
2023-04-03T12:28:31.789Z,93.10
2023-04-03T12:31:04.086Z,93.00
2023-04-03T12:33:38.396Z,92.80
2023-04-03T12:36:12.358Z,92.60
2023-04-03T12:38:59.690Z,92.80
2023-04-03T12:41:38.423Z,92.60
2023-04-03T14:36:27.225Z,48.10
2023-04-03T14:38:56.526Z,50.40
2023-04-03T14:41:26.349Z,52.60
2023-04-03T14:43:55.321Z,54.20
2023-04-03T14:46:35.144Z,55.80
2023-04-03T14:49:16.320Z,57.00
2023-04-03T14:51:45.784Z,57.70
2023-04-03T14:54:16.706Z,58.70
2023-04-03T14:56:45.526Z,59.50
2023-04-03T14:59:15.357Z,60.10
2023-04-03T15:01:43.350Z,60.90
2023-04-03T15:04:13.976Z,60.50
2023-04-03T15:06:42.201Z,61.00
2023-04-03T15:09:21.608Z,61.20
2023-04-03T15:11:49.777Z,57.50
2023-04-03T15:14:29.570Z,55.00
2023-04-03T15:17:05.442Z,53.00
2023-04-03T15:19:37.776Z,50.60
2023-04-03T15:22:05.594Z,49.70
2023-04-03T15:24:34.811Z,49.10
2023-04-03T15:27:03.366Z,48.70
2023-04-03T15:29:31.204Z,48.50
2023-04-03T15:31:59.141Z,48.70
2023-04-03T15:34:26.966Z,48.30
2023-04-03T15:36:54.817Z,48.20
2023-04-03T15:39:24.177Z,48.50
2023-04-03T15:41:54.712Z,49.10
2023-04-03T15:44:23.125Z,49.60
2023-04-03T15:46:52.282Z,49.50
2023-04-03T15:49:21.745Z,49.80
2023-04-03T15:51:49.626Z,50.90
2023-04-03T15:54:17.624Z,50.50
2023-04-03T15:56:45.508Z,51.30
2023-04-03T15:59:14.624Z,51.60
2023-04-03T16:01:42.583Z,51.80
2023-04-03T16:04:11.521Z,52.30
2023-04-03T16:06:39.840Z,52.10
2023-04-03T16:09:09.285Z,51.50
2023-04-03T16:11:40.061Z,52.30
2023-04-03T16:14:08.286Z,52.50
2023-04-03T16:16:38.446Z,52.50
2023-04-03T16:19:07.019Z,52.40
2023-04-03T16:21:35.466Z,52.30
2023-04-03T16:24:03.981Z,52.30
2023-04-03T16:26:31.762Z,52.80
2023-04-03T16:28:59.523Z,52.90
2023-04-03T16:31:29.257Z,53.30
2023-04-03T16:33:58.551Z,53.80
2023-04-03T16:36:27.183Z,54.20
2023-04-03T16:38:55.038Z,54.60
2023-04-03T16:41:22.977Z,54.90
2023-04-03T16:43:50.951Z,55.30
2023-04-03T16:46:18.844Z,55.60
2023-04-03T16:48:46.622Z,55.90
2023-04-03T16:51:15.967Z,56.40
2023-04-03T16:53:43.958Z,56.80
